Time;durP1;ratioP1;P1;durP2;ratioP2;P2;SDS_P1;SDS_P2;PMS_P1;PMS_P2;Temp;Humidity;BMP_temperature;BMP_pressure;BME280_temperature;BME280_humidity;BME280_pressure;Samples;Min_cycle;Max_cycle;Signal;HPM_P1;HPM_P2
2022/02/04 00:08:20;;;;;;;9.35;5.93;;;;;;;1.63;64.32;100634.13;5056305;28;20033;-20
2022/02/04 00:24:11;;;;;;;10.75;5.75;;;;;;;1.05;65.67;100643.91;5071261;28;20540;-20
2022/02/04 00:26:44;;;;;;;13.48;6.10;;;;;;;1.12;65.32;100644.97;5036635;28;20036;-20
2022/02/04 00:29:17;;;;;;;8.65;4.97;;;;;;;1.04;65.59;100639.63;5070948;28;20036;-20
2022/02/04 00:31:48;;;;;;;9.88;5.50;;;;;;;1.07;65.77;100634.09;5070644;28;20488;-21
2022/02/04 00:34:23;;;;;;;12.00;5.63;;;;;;;1.07;65.76;100626.22;5071201;28;20036;-20
2022/02/04 00:39:25;;;;;;;12.30;6.43;;;;;;;1.07;65.64;100623.59;5070746;28;20064;-20
2022/02/04 00:41:52;;;;;;;10.35;6.05;;;;;;;1.27;65.76;100626.13;5053873;28;20096;-21
2022/02/04 00:44:22;;;;;;;11.23;5.95;;;;;;;1.31;65.05;100630.13;5052654;28;20082;-20
2022/02/04 00:52:02;;;;;;;11.10;6.85;;;;;;;1.02;65.99;100643.34;5070601;28;20374;-21
2022/02/04 00:57:19;;;;;;;11.73;6.35;;;;;;;0.80;66.30;100630.44;5070598;28;20507;-20
2022/02/04 01:26:50;;;;;;;9.88;6.30;;;;;;;1.12;66.33;100647.59;5070221;28;20047;-22
2022/02/04 01:29:16;;;;;;;13.32;7.57;;;;;;;1.09;65.86;100642.66;5069595;28;20411;-20
2022/02/04 01:31:42;;;;;;;11.77;5.82;;;;;;;1.26;64.62;100648.13;5069709;28;20025;-20
2022/02/04 01:34:07;;;;;;;10.98;5.72;;;;;;;1.18;65.67;100638.31;5051518;28;20059;-20
2022/02/04 01:36:33;;;;;;;10.32;5.90;;;;;;;1.17;65.60;100640.13;5051822;28;20036;-20
2022/02/04 01:38:58;;;;;;;10.98;5.57;;;;;;;0.91;65.68;100639.09;5069828;28;20101;-20
2022/02/04 01:41:24;;;;;;;11.07;6.22;;;;;;;0.92;66.24;100636.34;5051255;28;20489;-20
2022/02/04 01:43:50;;;;;;;10.85;6.03;;;;;;;1.02;65.38;100625.78;5069530;28;20476;-21
2022/02/04 01:46:15;;;;;;;11.85;6.22;;;;;;;1.00;65.56;100638.25;5051455;28;20035;-21
2022/02/04 01:48:41;;;;;;;11.98;5.80;;;;;;;0.97;65.71;100633.28;5069621;28;20044;-20
2022/02/04 01:51:07;;;;;;;11.38;6.57;;;;;;;1.17;65.19;100639.31;5051509;28;20039;-21
2022/02/04 01:53:33;;;;;;;11.65;6.10;;;;;;;1.04;64.78;100644.03;5069127;28;20408;-20
2022/02/04 01:56:03;;;;;;;10.30;6.07;;;;;;;1.10;64.55;100639.03;5051401;28;20029;-21
2022/02/04 01:58:29;;;;;;;10.52;6.88;;;;;;;1.09;64.37;100645.28;5069345;28;20048;-20
2022/02/04 02:00:54;;;;;;;10.90;5.97;;;;;;;0.92;65.37;100656.50;5069192;28;20385;-20
2022/02/04 02:03:20;;;;;;;9.32;5.38;;;;;;;0.93;65.09;100645.03;5036921;28;20089;-20
2022/02/04 02:05:46;;;;;;;10.30;5.55;;;;;;;0.85;64.67;100647.56;5071168;28;20023;-20
2022/02/04 02:08:13;;;;;;;11.57;6.05;;;;;;;0.68;64.70;100621.06;5071186;28;20168;-21
2022/02/04 02:10:39;;;;;;;9.52;5.53;;;;;;;0.98;63.87;100645.44;5089446;28;20028;-21
2022/02/04 02:58:35;;;;;;;12.13;7.18;;;;;;;1.39;65.03;100690.69;5069948;28;20087;-20
2022/02/04 03:01:06;;;;;;;12.52;7.50;;;;;;;1.48;64.54;100704.75;5088326;28;20032;-21
2022/02/04 03:03:34;;;;;;;11.52;7.00;;;;;;;1.41;64.47;100704.53;5087647;28;20040;-20
2022/02/04 03:06:00;;;;;;;11.57;6.88;;;;;;;1.33;64.54;100696.53;5088206;28;20066;-20
2022/02/04 03:08:26;;;;;;;12.55;8.15;;;;;;;1.49;64.41;100709.88;5088173;28;20071;-21
2022/02/04 03:10:55;;;;;;;19.88;11.38;;;;;;;1.31;65.03;100703.69;5088485;28;20050;-20
2022/02/04 03:13:25;;;;;;;26.38;16.60;;;;;;;0.89;66.18;100704.06;5087885;28;20024;-20
2022/02/04 03:15:58;;;;;;;27.23;16.85;;;;;;;0.94;66.45;100693.97;5087255;28;20027;-20
2022/02/04 03:18:25;;;;;;;20.30;12.63;;;;;;;1.05;65.98;100675.44;5087760;28;20047;-21
2022/02/04 03:20:54;;;;;;;21.42;11.93;;;;;;;0.98;65.70;100703.22;5053292;28;20047;-21
2022/02/04 03:23:21;;;;;;;15.23;9.80;;;;;;;0.79;66.07;100693.56;5087581;28;20474;-21
2022/02/04 03:25:54;;;;;;;15.10;8.77;;;;;;;0.24;68.47;100698.53;5087896;28;20082;-20
2022/02/04 03:28:26;;;;;;;16.60;8.45;;;;;;;0.49;67.59;100698.03;5070704;28;20043;-20
2022/02/04 03:30:53;;;;;;;13.43;7.90;;;;;;;0.42;68.09;100706.56;5087715;28;20036;-20
2022/02/04 03:33:22;;;;;;;16.08;8.95;;;;;;;0.32;68.33;100710.00;5087780;28;20024;-21
2022/02/04 03:35:48;;;;;;;16.02;8.90;;;;;;;0.05;68.86;100694.09;5087653;28;20078;-20
2022/02/04 03:38:13;;;;;;;18.77;10.82;;;;;;;-0.23;69.65;100691.25;5087926;28;20044;-21
2022/02/04 03:40:38;;;;;;;21.35;11.13;;;;;;;-0.33;69.61;100695.63;5069459;28;20035;-21
2022/02/04 03:43:04;;;;;;;22.75;11.63;;;;;;;0.17;69.23;100700.88;5087609;28;20028;-20
2022/02/04 03:45:29;;;;;;;25.77;12.85;;;;;;;-0.01;68.61;100696.28;5087149;28;20418;-20
2022/02/04 03:47:55;;;;;;;22.52;10.82;;;;;;;-0.19;69.07;100691.81;5052839;28;20035;-20
2022/02/04 03:50:20;;;;;;;21.38;10.82;;;;;;;-0.26;69.99;100696.78;5087655;28;20028;-20
2022/02/04 03:52:46;;;;;;;35.47;11.57;;;;;;;-0.32;69.92;100702.56;5087663;28;20446;-20
2022/02/04 03:55:11;;;;;;;25.55;13.57;;;;;;;-0.32;70.49;100673.72;5069530;28;20028;-21
2022/02/04 03:57:37;;;;;;;17.15;10.40;;;;;;;-0.04;69.40;100695.72;5068976;28;20032;-21
2022/02/04 04:00:04;;;;;;;15.70;9.48;;;;;;;0.21;68.45;100673.41;5087035;28;20048;-22
2022/02/04 04:02:30;;;;;;;63.78;26.65;;;;;;;0.19;67.35;100691.09;5069638;28;20079;-22
2022/02/04 04:04:55;;;;;;;42.42;21.10;;;;;;;-0.11;69.02;100677.06;5087793;28;20503;-21
2022/02/04 04:07:21;;;;;;;44.58;20.33;;;;;;;-0.31;70.18;100693.72;5069256;28;20459;-20
2022/02/04 04:09:55;;;;;;;61.70;27.40;;;;;;;-0.20;69.26;100696.25;5087780;28;20403;-20
2022/02/04 04:12:23;;;;;;;123.53;47.97;;;;;;;-0.51;71.11;100692.81;5087289;28;20028;-21
2022/02/04 04:14:52;;;;;;;28.40;15.07;;;;;;;-0.38;70.79;100697.84;5087844;28;20101;-21
2022/02/04 04:17:18;;;;;;;126.28;51.88;;;;;;;-0.63;70.94;100694.69;5087012;28;20039;-22
2022/02/04 04:19:43;;;;;;;87.95;38.67;;;;;;;-0.59;71.20;100690.84;5087333;28;20035;-20
2022/02/04 04:22:09;;;;;;;76.60;35.97;;;;;;;-0.53;71.34;100700.81;5069247;28;20673;-20
2022/02/04 04:24:34;;;;;;;167.27;67.13;;;;;;;-0.63;71.50;100673.75;5087190;28;20099;-21
2022/02/04 04:27:00;;;;;;;22.13;13.10;;;;;;;-0.75;72.53;100696.56;5088848;28;20411;-22
2022/02/04 04:29:25;;;;;;;17.65;10.75;;;;;;;-1.15;73.78;100709.53;5056304;28;20047;-21
2022/02/04 04:31:50;;;;;;;21.42;10.98;;;;;;;-1.09;72.53;100709.84;5091066;28;20028;-21
2022/02/04 04:34:16;;;;;;;22.80;13.10;;;;;;;-1.10;72.60;100717.84;5091193;28;20396;-20
2022/02/04 04:36:42;;;;;;;25.38;15.80;;;;;;;-1.10;72.58;100712.63;5090125;28;20523;-20
2022/02/04 04:39:21;;;;;;;42.28;27.05;;;;;;;-1.25;73.95;100722.53;5091208;28;20547;-20
2022/02/04 04:42:14;;;;;;;45.65;23.10;;;;;;;-0.92;73.51;100708.47;5091123;28;20063;-20
2022/02/04 05:28:44;;;;;;;75.43;39.13;;;;;;;0.36;67.98;100737.63;5089806;28;20593;-21
2022/02/04 05:31:03;;;;;;;66.47;35.80;;;;;;;0.26;68.47;100749.06;5089240;28;20101;-21
2022/02/04 05:33:28;;;;;;;65.22;37.35;;;;;;;0.14;68.91;100748.34;5071522;28;20032;-21
2022/02/04 05:35:53;;;;;;;57.83;32.60;;;;;;;-0.03;68.49;100750.66;5089558;28;20024;-20
2022/02/04 05:38:20;;;;;;;157.25;70.07;;;;;;;-0.11;69.91;100745.25;5088746;28;20097;-21
2022/02/04 05:40:48;;;;;;;74.50;39.50;;;;;;;-0.55;71.03;100742.03;5089760;28;20559;-20
2022/02/04 05:43:21;;;;;;;93.97;49.63;;;;;;;-0.02;70.20;100747.09;5089339;28;20077;-22
2022/02/04 05:45:56;;;;;;;104.90;54.10;;;;;;;-0.29;69.92;100746.81;5072669;28;20024;-21
2022/02/04 05:48:23;;;;;;;89.32;47.05;;;;;;;-0.33;70.79;100721.84;5089408;28;20472;-21
2022/02/04 05:53:25;;;;;;;313.33;140.48;;;;;;;-0.01;69.46;100740.03;5089363;28;20465;-21
2022/02/04 05:58:29;;;;;;;88.15;51.47;;;;;;;0.08;70.99;100741.88;5089561;28;20496;-20
2022/02/04 06:24:04;;;;;;;72.65;42.97;;;;;;;1.27;66.84;100733.84;5073548;28;20506;-21
2022/02/04 06:26:30;;;;;;;86.78;55.05;;;;;;;1.16;67.18;100764.56;5088972;28;20028;-20
2022/02/04 06:28:55;;;;;;;79.05;47.10;;;;;;;0.84;69.09;100759.63;5088744;28;20943;-20
2022/02/04 06:31:21;;;;;;;70.63;45.35;;;;;;;0.62;70.08;100763.34;5070423;28;20088;-21
2022/02/04 06:33:47;;;;;;;71.97;43.78;;;;;;;0.62;70.49;100750.22;5088746;28;20081;-20
2022/02/04 06:36:12;;;;;;;81.30;48.70;;;;;;;0.61;71.15;100761.69;5088535;28;20027;-20
2022/02/04 06:38:38;;;;;;;85.88;50.53;;;;;;;0.68;71.94;100762.00;5088742;28;20036;-21
2022/02/04 06:41:04;;;;;;;76.32;48.33;;;;;;;0.89;70.63;100752.16;5088808;28;20699;-22
2022/02/04 06:43:30;;;;;;;86.18;53.65;;;;;;;0.80;70.68;100756.44;5088438;28;20028;-21
2022/02/04 06:45:55;;;;;;;75.10;47.25;;;;;;;0.94;70.52;100765.72;5088482;28;20170;-21
2022/02/04 06:48:21;;;;;;;75.30;46.63;;;;;;;1.33;69.19;100767.47;5088546;28;20069;-20
2022/02/04 06:50:46;;;;;;;75.97;45.13;;;;;;;0.86;69.37;100736.69;5088162;28;20101;-20
2022/02/04 06:53:12;;;;;;;95.10;50.80;;;;;;;1.57;68.31;100772.22;5089099;28;20043;-21
2022/02/04 06:55:37;;;;;;;96.15;51.33;;;;;;;1.87;66.58;100757.19;5088381;28;20097;-20
2022/02/04 06:58:03;;;;;;;100.63;52.75;;;;;;;2.10;65.61;100768.16;5088454;28;20036;-22
2022/02/04 07:00:29;;;;;;;78.88;42.08;;;;;;;2.04;64.79;100742.44;5088277;28;20035;-21
2022/02/04 07:02:54;;;;;;;61.50;37.60;;;;;;;1.93;65.26;100760.06;5088242;28;20047;-21
2022/02/04 07:05:21;;;;;;;33.60;22.48;;;;;;;2.00;64.72;100762.94;5087939;28;20048;-21
2022/02/04 07:08:03;;;;;;;35.33;20.38;;;;;;;1.97;66.15;100761.44;5088239;28;20028;-20
2022/02/04 07:10:40;;;;;;;20.38;13.15;;;;;;;2.33;63.15;100776.47;5088200;28;20038;-21
2022/02/04 07:13:15;;;;;;;26.17;16.98;;;;;;;2.10;63.98;100768.97;5088233;28;20038;-21
2022/02/04 07:15:53;;;;;;;19.88;13.30;;;;;;;2.07;64.15;100769.28;5087937;28;20392;-21
2022/02/04 07:21:08;;;;;;;19.42;11.85;;;;;;;1.91;64.04;100748.88;5087885;28;20035;-22
2022/02/04 07:23:35;;;;;;;17.88;11.82;;;;;;;2.26;63.83;100776.25;5087719;28;20028;-20
2022/02/04 07:26:00;;;;;;;18.60;11.25;;;;;;;2.39;63.17;100768.84;5069683;28;20036;-21
2022/02/04 07:28:26;;;;;;;14.70;8.88;;;;;;;2.40;61.46;100757.31;5087770;28;20032;-21
2022/02/04 07:30:52;;;;;;;11.82;6.60;;;;;;;2.40;60.35;100769.66;5069918;28;20185;-20
2022/02/04 07:33:21;;;;;;;13.68;7.68;;;;;;;2.40;61.82;100767.84;5087677;28;20024;-21
2022/02/04 07:41:09;;;;;;;15.15;8.48;;;;;;;2.81;60.46;100773.50;5087856;28;20291;-20
2022/02/04 07:43:34;;;;;;;13.75;8.68;;;;;;;2.94;59.82;100777.56;5087632;28;20024;-22
2022/02/04 07:46:00;;;;;;;13.52;8.32;;;;;;;2.89;60.43;100769.31;5087794;28;20036;-21
2022/02/04 07:48:25;;;;;;;14.68;8.38;;;;;;;2.36;59.05;100753.31;5069515;28;20495;-20
2022/02/04 07:50:51;;;;;;;16.95;8.38;;;;;;;2.44;60.94;100772.81;5069558;28;20476;-21
2022/02/04 07:53:17;;;;;;;11.90;7.47;;;;;;;2.61;59.01;100766.72;5068985;28;20066;-21
2022/02/04 07:55:43;;;;;;;13.27;8.25;;;;;;;2.53;58.89;100774.56;5087793;28;20055;-21
2022/02/04 07:58:10;;;;;;;13.13;7.75;;;;;;;2.31;60.13;100776.63;5069427;28;20058;-21
2022/02/04 08:00:35;;;;;;;11.95;7.15;;;;;;;2.39;58.97;100758.31;5087733;28;20043;-21
2022/02/04 08:03:09;;;;;;;15.43;8.75;;;;;;;2.50;60.16;100759.06;5090737;28;20028;-20
2022/02/04 08:05:34;;;;;;;14.27;8.50;;;;;;;2.98;59.51;100776.28;5074346;28;20042;-21
2022/02/04 08:08:29;;;;;;;12.93;7.85;;;;;;;3.13;58.10;100772.13;5091094;28;20028;-20
2022/02/04 08:11:05;;;;;;;11.70;7.78;;;;;;;2.88;58.48;100746.56;5090813;28;20083;-22
2022/02/04 08:14:20;;;;;;;13.48;7.25;;;;;;;3.16;56.80;100771.81;5075953;28;20048;-22
2022/02/04 08:19:15;;;;;;;13.90;8.15;;;;;;;3.37;59.61;100775.91;5091442;28;20028;-21
2022/02/04 08:24:25;;;;;;;14.02;7.95;;;;;;;3.41;56.91;100766.72;5090814;28;20101;-20
2022/02/04 08:48:10;;;;;;;14.63;9.70;;;;;;;4.11;58.02;100742.84;5090329;28;20051;-20
2022/02/04 08:50:55;;;;;;;18.45;10.70;;;;;;;4.46;56.95;100759.44;5090196;28;20020;-20
2022/02/04 08:56:36;;;;;;;15.82;10.32;;;;;;;4.99;53.77;100775.88;5007362;28;20044;-20
2022/02/04 08:59:09;;;;;;;25.63;15.30;;;;;;;5.16;53.32;100777.50;5079771;28;20055;-21
2022/02/04 09:01:39;;;;;;;15.90;11.13;;;;;;;5.38;53.18;100780.47;5089737;28;20079;-20
2022/02/04 09:04:08;;;;;;;12.35;7.72;;;;;;;5.31;53.08;100780.31;5089599;28;20031;-21
2022/02/04 09:06:41;;;;;;;16.95;11.82;;;;;;;5.40;53.32;100776.66;5089992;28;20024;-21
2022/02/04 09:09:13;;;;;;;14.63;9.52;;;;;;;5.36;53.16;100774.53;5072686;28;20038;-20
2022/02/04 09:11:43;;;;;;;14.23;9.05;;;;;;;5.32;53.29;100774.03;5089718;28;20032;-21
2022/02/04 09:22:47;;;;;;;13.95;8.32;;;;;;;4.53;54.66;100763.06;5054797;28;20590;-20
2022/02/04 09:25:13;;;;;;;12.20;7.72;;;;;;;4.61;53.14;100738.50;5089870;28;20051;-20
2022/02/04 09:27:38;;;;;;;13.50;9.20;;;;;;;5.27;54.51;100763.13;5089410;28;20040;-21
2022/02/04 09:30:06;;;;;;;11.20;6.93;;;;;;;5.11;52.32;100747.25;5089618;28;20059;-20
2022/02/04 09:32:33;;;;;;;14.48;7.93;;;;;;;5.55;51.95;100760.09;5089330;28;20106;-20
2022/02/04 09:35:00;;;;;;;12.48;8.15;;;;;;;5.72;52.42;100750.28;5089456;28;20028;-20
2022/02/04 09:37:26;;;;;;;16.05;8.50;;;;;;;5.68;52.19;100756.91;5089039;28;20085;-20
2022/02/04 09:39:52;;;;;;;13.82;8.38;;;;;;;5.50;51.99;100750.03;5089467;28;20463;-21
2022/02/04 09:42:17;;;;;;;13.50;7.60;;;;;;;5.24;52.38;100761.63;5089384;28;20036;-20
2022/02/04 09:44:43;;;;;;;11.85;7.97;;;;;;;5.24;52.48;100740.47;5089483;28;20384;-21
2022/02/04 09:47:08;;;;;;;14.30;7.43;;;;;;;5.45;52.23;100749.69;5089496;28;20109;-20
2022/02/04 09:49:39;;;;;;;12.20;7.68;;;;;;;5.46;52.02;100745.25;5088896;28;20024;-20
2022/02/04 10:19:37;;;;;;;12.05;7.32;;;;;;;7.47;48.10;100724.13;5088645;28;20088;-20
2022/02/04 10:22:03;;;;;;;10.65;6.35;;;;;;;7.39;46.30;100701.97;5088308;28;20072;-21
2022/02/04 10:24:28;;;;;;;11.13;6.60;;;;;;;7.42;46.30;100712.25;5087968;28;20066;-20
2022/02/04 10:27:21;;;;;;;11.55;7.22;;;;;;;7.37;46.30;100719.09;5070221;28;20055;-20
2022/02/04 10:30:06;;;;;;;10.95;6.47;;;;;;;7.57;46.51;100733.47;5084185;28;20036;-20
2022/02/04 10:32:37;;;;;;;13.10;7.40;;;;;;;7.56;46.20;100734.50;5088560;28;20039;-20
2022/02/04 10:35:13;;;;;;;14.32;7.95;;;;;;;7.90;45.35;100721.66;5088158;28;20118;-20
2022/02/04 10:37:44;;;;;;;12.48;7.45;;;;;;;7.80;46.80;100717.44;5088137;28;20035;-21
2022/02/04 10:40:30;;;;;;;12.20;7.32;;;;;;;8.42;45.29;100708.19;5088104;28;20131;-20
2022/02/04 10:43:15;;;;;;;17.25;8.85;;;;;;;8.66;44.40;100698.19;5088076;28;20024;-20
2022/02/04 10:45:59;;;;;;;13.05;8.93;;;;;;;9.07;43.41;100704.66;5088206;28;20039;-21
2022/02/04 10:54:03;;;;;;;12.57;7.28;;;;;;;9.09;41.77;100698.13;5088253;28;20036;-20
2022/02/04 11:04:29;;;;;;;11.85;7.13;;;;;;;9.77;43.03;100646.91;5087992;28;20571;-20
2022/02/04 11:07:16;;;;;;;12.10;7.07;;;;;;;10.00;39.34;100671.38;5087403;28;20048;-20
2022/02/04 11:32:04;;;;;;;10.75;6.53;;;;;;;10.36;37.94;100646.28;5071705;28;20031;-20
2022/02/04 11:34:43;;;;;;;12.70;6.90;;;;;;;10.39;37.88;100639.72;5087273;28;20028;-20
2022/02/04 11:52:11;;;;;;;12.07;7.38;;;;;;;10.56;38.77;100632.13;5087346;28;20024;-20
2022/02/04 11:57:03;;;;;;;11.60;7.80;;;;;;;11.00;39.50;100630.69;5087077;28;20060;-22
2022/02/04 11:59:49;;;;;;;10.27;6.53;;;;;;;10.92;37.86;100618.38;5086894;28;20118;-21
2022/02/04 12:02:24;;;;;;;11.77;7.45;;;;;;;11.65;38.06;100615.50;5069060;28;20219;-20
2022/02/04 12:05:16;;;;;;;13.65;8.73;;;;;;;12.38;34.89;100618.78;5087208;28;20840;-21
2022/02/04 12:07:47;;;;;;;10.07;7.07;;;;;;;13.27;34.13;100612.19;5076386;28;20526;-20
2022/02/04 12:10:12;;;;;;;11.43;7.20;;;;;;;12.74;34.50;100609.25;5087285;28;20036;-20
2022/02/04 12:12:57;;;;;;;10.35;6.97;;;;;;;12.80;33.99;100613.72;5086820;28;20100;-20
2022/02/04 12:15:31;;;;;;;10.27;6.78;;;;;;;12.84;33.47;100598.84;5086594;28;20075;-20
2022/02/04 12:18:07;;;;;;;10.95;6.88;;;;;;;13.01;35.10;100580.34;5086686;28;20024;-20
2022/02/04 12:20:50;;;;;;;11.70;7.30;;;;;;;12.54;34.56;100575.44;5086970;28;20036;-20
2022/02/04 12:23:27;;;;;;;10.63;6.82;;;;;;;11.25;36.54;100575.56;5086601;28;20027;-21
2022/02/04 12:26:02;;;;;;;11.13;7.40;;;;;;;12.30;35.38;100587.81;5086660;28;20039;-20
2022/02/04 12:28:52;;;;;;;11.20;7.63;;;;;;;12.35;33.49;100589.81;5086920;28;20034;-20
2022/02/04 12:31:26;;;;;;;11.38;7.10;;;;;;;11.98;34.23;100574.44;5086614;28;20020;-20
2022/02/04 12:34:01;;;;;;;11.80;7.72;;;;;;;13.20;33.07;100573.97;5086634;28;20758;-20
2022/02/04 12:36:36;;;;;;;12.07;7.43;;;;;;;12.85;33.27;100574.56;5086613;28;20031;-20
2022/02/04 12:39:04;;;;;;;10.65;6.90;;;;;;;13.39;31.93;100542.66;5086676;28;20032;-21
2022/02/04 12:41:35;;;;;;;12.88;7.60;;;;;;;13.40;35.13;100559.53;5068340;28;20059;-20
2022/02/04 12:44:02;;;;;;;11.48;7.50;;;;;;;13.54;31.78;100560.19;5086379;28;20020;-20
2022/02/04 12:46:28;;;;;;;15.57;8.10;;;;;;;13.39;32.07;100539.16;5086733;28;20128;-22
2022/02/04 12:48:58;;;;;;;11.07;7.53;;;;;;;14.15;31.20;100558.31;5089696;28;20036;-20
2022/02/04 12:51:55;;;;;;;25.65;16.63;;;;;;;14.38;31.10;100539.53;5090133;28;20040;-20
2022/02/04 12:54:26;;;;;;;11.70;7.18;;;;;;;14.24;31.69;100559.59;5090242;28;20103;-20
2022/02/04 13:00:01;;;;;;;10.60;6.93;;;;;;;15.71;28.97;100551.47;5090072;28;20135;-20
2022/02/04 13:10:28;;;;;;;11.43;7.25;;;;;;;15.58;27.56;100550.69;5090211;28;20028;-20
2022/02/04 13:13:04;;;;;;;11.27;7.20;;;;;;;16.44;27.14;100555.97;5089827;28;20035;-20
2022/02/04 13:15:33;;;;;;;10.77;7.55;;;;;;;16.60;27.37;100553.53;5089650;28;20028;-20
2022/02/04 13:17:58;;;;;;;12.75;7.75;;;;;;;16.38;29.27;100554.25;5089573;28;20028;-20
2022/02/04 13:20:24;;;;;;;11.30;7.32;;;;;;;15.71;29.50;100551.47;5089536;28;20074;-20
2022/02/04 13:22:58;;;;;;;13.25;7.47;;;;;;;16.16;28.25;100537.22;5089541;28;20032;-21
2022/02/04 13:25:35;;;;;;;10.13;6.90;;;;;;;17.57;25.58;100535.91;5071333;28;20405;-20
2022/02/04 13:28:18;;;;;;;10.02;6.65;;;;;;;18.16;23.98;100553.19;5089542;28;20111;-21
2022/02/04 13:31:00;;;;;;;11.90;7.60;;;;;;;18.78;24.34;100552.56;5089396;28;20031;-20
2022/02/04 13:33:31;;;;;;;10.38;6.82;;;;;;;18.48;23.66;100540.50;5089349;28;20047;-21
2022/02/04 13:36:04;;;;;;;11.85;7.07;;;;;;;19.76;22.68;100555.72;5089566;28;20050;-20
2022/02/04 13:38:46;;;;;;;10.40;7.00;;;;;;;20.98;21.56;100554.81;5089375;28;20032;-20
2022/02/04 13:41:29;;;;;;;9.68;6.55;;;;;;;20.35;21.99;100555.19;5089170;28;20085;-20
2022/02/04 13:44:30;;;;;;;9.60;7.22;;;;;;;21.25;21.55;100573.44;5073293;28;20028;-20
2022/02/04 13:52:56;;;;;;;11.55;7.32;;;;;;;22.36;18.74;100557.84;5089205;28;20024;-20
2022/02/04 14:01:10;;;;;;;9.10;6.45;;;;;;;20.51;20.55;100530.78;5088301;28;20044;-21
2022/02/04 14:03:41;;;;;;;8.73;6.90;;;;;;;21.25;20.01;100540.09;5088551;28;20031;-20
2022/02/04 14:06:15;;;;;;;10.70;6.57;;;;;;;21.15;19.89;100549.06;5088609;28;20024;-20
2022/02/04 14:09:07;;;;;;;10.38;7.35;;;;;;;21.39;20.77;100530.25;5088672;28;20027;-21
2022/02/04 14:11:30;;;;;;;9.93;7.00;;;;;;;22.03;20.10;100528.47;5087926;28;20418;-20
2022/02/04 14:13:56;;;;;;;9.90;6.95;;;;;;;20.43;21.12;100524.84;5088479;28;20658;-20
2022/02/04 14:16:22;;;;;;;11.32;7.35;;;;;;;22.11;20.31;100515.34;5088497;28;20028;-20
2022/02/04 14:18:47;;;;;;;10.90;7.20;;;;;;;21.90;20.06;100507.38;5088199;28;20077;-20
2022/02/04 14:21:13;;;;;;;11.15;7.45;;;;;;;21.20;20.86;100511.06;5088890;28;20032;-20
2022/02/04 14:23:40;;;;;;;8.82;6.28;;;;;;;20.14;21.76;100499.41;5088103;28;20028;-20
2022/02/04 14:26:10;;;;;;;10.27;6.87;;;;;;;19.41;22.38;100509.34;5088318;28;20031;-20
2022/02/04 14:28:42;;;;;;;10.55;7.00;;;;;;;19.13;21.94;100510.59;5088401;28;20535;-21
2022/02/04 14:31:21;;;;;;;8.85;7.00;;;;;;;17.91;23.43;100499.84;5088115;28;20030;-21
2022/02/04 14:53:24;;;;;;;46.92;27.67;;;;;;;9.61;41.40;100488.31;5088099;28;20036;-21
2022/02/04 15:00:48;;;;;;;22.83;13.07;;;;;;;8.13;47.52;100498.38;5087611;28;20038;-20
2022/02/04 15:03:19;;;;;;;45.42;22.98;;;;;;;7.72;47.85;100485.75;5087515;28;20056;-22
2022/02/04 15:05:49;;;;;;;39.95;20.30;;;;;;;7.39;49.66;100494.19;5087445;28;20551;-20
2022/02/04 15:08:18;;;;;;;51.78;27.05;;;;;;;6.90;51.81;100485.03;5087522;28;20745;-20
2022/02/04 15:10:47;;;;;;;41.67;22.50;;;;;;;6.74;51.57;100464.88;5087058;28;20032;-20
2022/02/04 15:13:14;;;;;;;;;;;;;;;6.93;51.87;100484.69;5088411;28;20032;-20
2022/02/04 15:15:40;;;;;;;27.73;16.67;;;;;;;7.10;50.96;100490.59;5087586;28;19908;-20
2022/02/04 15:18:05;;;;;;;26.58;15.20;;;;;;;7.00;51.66;100482.09;5087720;28;20059;-21
2022/02/04 15:20:31;;;;;;;27.55;15.80;;;;;;;7.19;51.84;100499.25;5087645;28;20059;-20
2022/02/04 15:22:56;;;;;;;29.33;15.38;;;;;;;7.19;51.74;100499.25;5087270;28;20081;-20
2022/02/04 15:25:23;;;;;;;25.10;15.27;;;;;;;7.34;51.13;100507.22;5068879;28;20090;-20
2022/02/04 15:30:39;;;;;;;28.55;16.17;;;;;;;6.90;52.00;100500.94;5045560;28;20075;-20
2022/02/04 15:33:05;;;;;;;27.17;15.07;;;;;;;6.92;51.89;100479.56;5087290;28;20031;-21
2022/02/04 15:35:31;;;;;;;29.65;15.52;;;;;;;7.09;51.72;100499.56;5087148;28;20039;-21
2022/02/04 15:37:57;;;;;;;25.23;14.68;;;;;;;6.68;51.93;100473.56;5087002;28;20036;-20
2022/02/04 15:40:22;;;;;;;29.80;14.38;;;;;;;6.49;51.44;100456.34;5087531;28;20031;-20
2022/02/04 15:42:57;;;;;;;27.50;15.50;;;;;;;6.65;51.70;100487.16;5087196;28;20024;-20
2022/02/04 15:48:15;;;;;;;44.28;25.98;;;;;;;6.42;53.01;100495.19;5087181;28;20032;-20
2022/02/04 15:50:57;;;;;;;66.60;42.35;;;;;;;6.59;53.03;100488.72;5087275;28;20028;-21
2022/02/04 15:53:53;;;;;;;71.18;43.60;;;;;;;6.79;51.39;100482.88;5086864;28;20404;-20
2022/02/04 16:02:03;;;;;;;121.22;70.88;;;;;;;6.96;50.45;100499.41;5086931;28;20028;-21
2022/02/04 16:04:28;;;;;;;42.03;29.40;;;;;;;6.97;50.15;100487.78;5083881;28;20260;-20
2022/02/04 16:06:54;;;;;;;27.95;18.08;;;;;;;6.51;51.93;100502.03;5086988;28;20119;-20
2022/02/04 16:09:21;;;;;;;30.60;20.20;;;;;;;6.60;51.77;100490.38;5086596;28;20111;-20
2022/02/04 16:14:30;;;;;;;61.85;39.63;;;;;;;6.45;52.22;100470.97;5087164;28;20048;-20
2022/02/04 16:17:04;;;;;;;108.38;61.90;;;;;;;6.63;52.50;100492.63;5086533;28;20028;-20
2022/02/04 16:19:32;;;;;;;97.38;54.33;;;;;;;6.80;51.68;100495.94;5086175;28;20044;-20
2022/02/04 16:29:38;;;;;;;100.45;57.60;;;;;;;7.05;52.22;100498.31;5090444;28;20036;-20
2022/02/04 16:32:04;;;;;;;96.85;55.58;;;;;;;7.20;52.37;100477.06;5090557;28;20027;-21
2022/02/04 16:34:30;;;;;;;86.80;54.85;;;;;;;7.20;53.56;100472.56;5090812;28;20024;-21
2022/02/04 16:37:01;;;;;;;93.22;60.50;;;;;;;6.46;54.11;100472.63;5090597;28;20024;-20
2022/02/04 16:39:26;;;;;;;113.00;68.22;;;;;;;6.27;55.30;100487.19;5090274;28;20032;-22
2022/02/04 16:42:04;;;;;;;71.57;47.65;;;;;;;6.57;53.78;100489.91;5090103;28;20035;-21
2022/02/04 16:44:31;;;;;;;57.67;37.83;;;;;;;6.46;52.16;100498.28;5090126;28;20523;-20
2022/02/04 16:47:00;;;;;;;59.60;42.10;;;;;;;6.60;52.84;100484.25;5090488;28;20031;-21
2022/02/04 16:49:27;;;;;;;57.80;39.28;;;;;;;6.58;52.43;100494.22;5088279;28;20028;-21
2022/02/04 16:51:52;;;;;;;65.95;43.00;;;;;;;6.28;53.19;100465.03;5070014;28;20064;-22
2022/02/04 16:54:19;;;;;;;93.47;52.50;;;;;;;6.39;52.40;100477.81;5069863;28;20060;-21
2022/02/04 16:56:45;;;;;;;116.72;54.67;;;;;;;6.24;52.05;100499.00;5069934;28;20094;-20
2022/02/04 16:59:10;;;;;;;161.45;66.28;;;;;;;6.04;52.68;100490.72;5069548;28;20052;-20
2022/02/04 17:01:36;;;;;;;111.72;48.30;;;;;;;5.67;52.66;100470.31;5069738;28;20112;-20
2022/02/04 17:04:03;;;;;;;135.73;65.07;;;;;;;6.03;54.44;100488.28;5069722;28;20032;-21
2022/02/04 17:06:34;;;;;;;99.43;54.58;;;;;;;6.17;53.72;100484.84;5069751;28;20028;-21
2022/02/04 17:09:19;;;;;;;126.20;63.25;;;;;;;6.36;52.47;100494.09;5069655;28;20033;-20
2022/02/04 17:11:46;;;;;;;84.60;50.40;;;;;;;5.92;52.35;100465.66;5069307;28;20622;-20
2022/02/04 17:14:12;;;;;;;73.95;47.85;;;;;;;5.52;54.12;100491.44;5069828;28;20029;-20
2022/02/04 17:16:42;;;;;;;82.13;48.95;;;;;;;5.51;53.85;100484.47;5069669;28;20028;-20
2022/02/04 17:19:11;;;;;;;85.78;47.75;;;;;;;5.28;55.29;100470.41;5069676;28;20123;-21
2022/02/04 17:21:38;;;;;;;74.82;45.38;;;;;;;5.52;54.12;100491.44;5069234;28;20020;-20
2022/02/04 17:24:04;;;;;;;85.05;52.10;;;;;;;5.15;55.47;100479.75;5051126;28;20116;-21
2022/02/04 17:26:29;;;;;;;93.18;56.42;;;;;;;4.97;55.80;100487.91;5069672;28;20031;-21
2022/02/04 17:28:55;;;;;;;99.78;55.92;;;;;;;5.12;55.55;100477.44;5069166;28;20028;-20
2022/02/04 17:31:20;;;;;;;74.40;42.33;;;;;;;5.06;54.99;100474.66;5068987;28;20495;-20
2022/02/04 17:33:46;;;;;;;72.82;44.85;;;;;;;4.97;55.96;100487.09;5052844;28;20016;-20
2022/02/04 17:36:11;;;;;;;96.35;50.17;;;;;;;4.32;57.77;100462.53;5051048;28;20381;-20
2022/02/04 17:38:37;;;;;;;105.72;52.30;;;;;;;4.03;58.90;100478.91;5089085;28;20035;-21
2022/02/04 17:41:02;;;;;;;90.45;45.15;;;;;;;3.79;59.64;100467.34;5089380;28;20483;-20
2022/02/04 17:43:28;;;;;;;103.70;48.78;;;;;;;3.75;59.72;100475.75;5089149;28;20376;-20